createdAt,value
2023-01-09T00:00:29.583Z,94641
2023-01-09T00:01:29.523Z,94625
2023-01-09T00:02:29.545Z,94636
2023-01-09T00:03:29.699Z,94636
2023-01-09T00:04:29.546Z,94644
2023-01-09T00:05:29.556Z,94642
2023-01-09T00:06:29.582Z,94642
2023-01-09T00:08:29.554Z,94641
2023-01-09T00:09:29.506Z,94649
2023-01-09T00:10:29.522Z,94647
2023-01-09T00:11:29.534Z,94644
2023-01-09T00:12:29.544Z,94649
2023-01-09T00:13:29.566Z,94645
2023-01-09T00:14:29.498Z,94645
2023-01-09T00:15:29.574Z,94653
2023-01-09T00:16:29.617Z,94652
2023-01-09T00:17:29.555Z,94651
2023-01-09T00:18:29.566Z,94650
2023-01-09T00:19:29.598Z,94641
2023-01-09T00:20:29.580Z,94640
2023-01-09T00:21:29.563Z,94645
2023-01-09T00:22:29.574Z,94651
2023-01-09T00:25:29.610Z,94658
2023-01-09T00:26:29.606Z,94652
2023-01-09T00:27:29.616Z,94651
2023-01-09T00:29:29.619Z,94650
2023-01-09T00:30:29.619Z,94653
2023-01-09T00:31:29.575Z,94647
2023-01-09T00:32:29.608Z,94639
2023-01-09T00:33:29.584Z,94639
2023-01-09T00:34:29.597Z,94636
2023-01-09T00:35:29.627Z,94632
2023-01-09T00:36:29.605Z,94636
2023-01-09T00:37:29.602Z,94636
2023-01-09T00:38:29.606Z,94636
2023-01-09T00:40:29.616Z,94635
2023-01-09T00:41:29.626Z,94635
2023-01-09T00:42:29.601Z,94633
2023-01-09T00:43:29.649Z,94627
2023-01-09T00:44:29.598Z,94628
2023-01-09T00:45:29.693Z,94632
2023-01-09T00:46:29.671Z,94627
2023-01-09T00:47:29.631Z,94627
2023-01-09T00:48:29.695Z,94634
2023-01-09T00:49:29.604Z,94634
2023-01-09T00:50:29.633Z,94628
2023-01-09T00:53:29.677Z,94622
2023-01-09T00:54:29.642Z,94621
2023-01-09T00:55:29.668Z,94621
2023-01-09T00:56:29.700Z,94622
2023-01-09T00:57:29.645Z,94622
2023-01-09T00:58:29.644Z,94623
2023-01-09T00:59:29.640Z,94626
2023-01-09T01:00:29.625Z,94624
2023-01-09T01:01:29.759Z,94629
2023-01-09T01:02:29.792Z,94632
2023-01-09T01:04:29.742Z,94634
2023-01-09T01:05:29.693Z,94629
2023-01-09T01:06:29.648Z,94629
2023-01-09T01:07:29.659Z,94628
2023-01-09T01:08:29.642Z,94622
2023-01-09T01:09:29.706Z,94625
2023-01-09T01:10:29.657Z,94625
2023-01-09T01:11:29.695Z,94635
2023-01-09T01:12:29.703Z,94642
2023-01-09T01:13:29.660Z,94640
2023-01-09T01:14:29.673Z,94643
2023-01-09T01:15:29.671Z,94643
2023-01-09T01:16:29.766Z,94643
2023-01-09T01:17:29.739Z,94651
2023-01-09T01:18:29.705Z,94648
2023-01-09T01:19:29.665Z,94645
2023-01-09T01:20:29.684Z,94643
2023-01-09T01:21:29.691Z,94637
2023-01-09T01:22:29.698Z,94636
2023-01-09T01:23:29.711Z,94633
2023-01-09T01:24:29.683Z,94630
2023-01-09T01:25:29.722Z,94625
2023-01-09T01:26:29.693Z,94625
2023-01-09T01:27:29.729Z,94632
2023-01-09T01:28:29.723Z,94638
2023-01-09T01:29:29.735Z,94638
2023-01-09T01:30:29.767Z,94637
2023-01-09T01:31:29.703Z,94634
2023-01-09T01:32:29.741Z,94635
2023-01-09T01:33:29.714Z,94635
2023-01-09T01:34:29.743Z,94638
2023-01-09T01:35:29.752Z,94647
2023-01-09T01:36:29.747Z,94645
2023-01-09T01:37:29.811Z,94650
2023-01-09T01:38:29.750Z,94647
2023-01-09T01:39:29.716Z,94650
2023-01-09T01:40:29.729Z,94650
2023-01-09T01:41:29.945Z,94659
2023-01-09T01:42:29.728Z,94653
2023-01-09T01:43:29.748Z,94662
2023-01-09T01:44:29.730Z,94664
2023-01-09T01:45:29.782Z,94668
2023-01-09T01:46:29.802Z,94675
2023-01-09T01:47:29.747Z,94676
2023-01-09T01:48:29.741Z,94677
2023-01-09T01:49:29.786Z,94682
2023-01-09T01:50:29.783Z,94682
2023-01-09T01:51:29.831Z,94688
2023-01-09T01:52:29.784Z,94688
2023-01-09T01:53:29.784Z,94686
2023-01-09T01:54:29.836Z,94691
2023-01-09T01:55:29.804Z,94686
2023-01-09T01:56:29.811Z,94686
2023-01-09T01:57:29.765Z,94686
2023-01-09T02:00:29.828Z,94688
2023-01-09T02:01:29.894Z,94688
2023-01-09T02:02:29.914Z,94690
2023-01-09T02:04:29.774Z,94676
2023-01-09T02:05:29.793Z,94679
2023-01-09T02:06:29.829Z,94673
2023-01-09T02:07:29.859Z,94669
2023-01-09T02:08:29.829Z,94673
2023-01-09T02:10:29.807Z,94679
2023-01-09T02:11:29.843Z,94680
2023-01-09T02:12:29.868Z,94678
2023-01-09T02:13:29.843Z,94674
2023-01-09T02:14:29.852Z,94675
2023-01-09T02:15:29.896Z,94680
2023-01-09T02:17:29.874Z,94694
2023-01-09T02:18:29.862Z,94694
2023-01-09T02:19:29.865Z,94703
2023-01-09T02:20:29.896Z,94709
2023-01-09T02:21:29.867Z,94715
2023-01-09T02:22:29.808Z,94720
2023-01-09T02:23:29.868Z,94725
2023-01-09T02:24:29.897Z,94737
2023-01-09T02:25:29.866Z,94735
2023-01-09T02:26:29.862Z,94734
2023-01-09T02:27:29.874Z,94748
2023-01-09T02:28:29.914Z,94749
2023-01-09T02:30:29.846Z,94741
2023-01-09T02:31:29.862Z,94737
2023-01-09T02:32:29.841Z,94725
2023-01-09T02:33:29.918Z,94730
2023-01-09T02:34:29.889Z,94727
2023-01-09T02:35:29.884Z,94727
2023-01-09T02:36:29.899Z,94730
2023-01-09T02:37:29.893Z,94732
2023-01-09T02:38:29.876Z,94728
2023-01-09T02:39:29.928Z,94731
2023-01-09T02:40:29.922Z,94738
2023-01-09T02:41:29.946Z,94735
2023-01-09T02:42:29.912Z,94733
2023-01-09T02:43:29.875Z,94736
2023-01-09T02:44:29.871Z,94743
2023-01-09T02:45:29.955Z,94742
2023-01-09T02:46:29.906Z,94738
2023-01-09T02:47:29.916Z,94737
2023-01-09T02:48:29.935Z,94740
2023-01-09T02:49:29.905Z,94744
2023-01-09T02:50:29.922Z,94752
2023-01-09T02:51:29.934Z,94748
2023-01-09T02:52:29.901Z,94758
2023-01-09T02:53:29.937Z,94765
2023-01-09T02:54:29.973Z,94771
2023-01-09T02:55:29.948Z,94776
2023-01-09T02:56:29.964Z,94774
2023-01-09T02:57:29.961Z,94776
2023-01-09T02:58:29.945Z,94782
2023-01-09T02:59:29.953Z,94788
2023-01-09T03:00:29.973Z,94795
2023-01-09T03:01:30.180Z,94796
2023-01-09T03:02:29.988Z,94799
2023-01-09T03:03:29.958Z,94809
2023-01-09T03:04:29.964Z,94826
2023-01-09T03:05:29.968Z,94826
2023-01-09T03:06:29.940Z,94830
2023-01-09T03:07:29.978Z,94838
2023-01-09T03:08:29.923Z,94838
2023-01-09T03:09:29.979Z,94835
2023-01-09T03:10:30.025Z,94841
2023-01-09T03:11:29.980Z,94840
2023-01-09T03:12:29.988Z,94833
2023-01-09T03:13:30.001Z,94845
2023-01-09T03:14:29.992Z,94842
2023-01-09T03:15:30.047Z,94844
2023-01-09T03:16:30.099Z,94853
2023-01-09T03:17:29.992Z,94862
2023-01-09T03:18:30.019Z,94858
2023-01-09T03:19:29.959Z,94857
2023-01-09T03:20:30.036Z,94847
2023-01-09T03:21:30.022Z,94841
2023-01-09T03:22:29.984Z,94846
2023-01-09T03:23:30.041Z,94864
2023-01-09T03:24:29.981Z,94865
2023-01-09T03:25:29.981Z,94858
2023-01-09T03:26:29.982Z,94867
2023-01-09T03:27:30.045Z,94871
2023-01-09T03:28:29.989Z,94879
2023-01-09T03:29:30.029Z,94878
2023-01-09T03:30:30.000Z,94884
2023-01-09T03:31:30.064Z,94888
2023-01-09T03:32:30.043Z,94885
2023-01-09T03:33:29.986Z,94885
2023-01-09T03:34:29.996Z,94886
2023-01-09T03:35:30.035Z,94887
2023-01-09T03:36:30.109Z,94896
2023-01-09T03:37:30.079Z,94906
2023-01-09T03:38:30.173Z,94909
2023-01-09T03:39:30.079Z,94918
2023-01-09T03:40:30.043Z,94918
2023-01-09T03:41:30.071Z,94911
2023-01-09T03:42:30.066Z,94911
2023-01-09T03:43:30.024Z,94919
2023-01-09T03:44:30.107Z,94920
2023-01-09T03:45:30.100Z,94926
2023-01-09T03:46:30.073Z,94930
2023-01-09T03:48:30.085Z,94923
2023-01-09T03:49:30.133Z,94922
2023-01-09T03:50:30.041Z,94932
2023-01-09T03:51:30.090Z,94927
2023-01-09T03:52:30.128Z,94928
2023-01-09T03:53:30.084Z,94934
2023-01-09T03:54:30.105Z,94933
2023-01-09T03:55:30.124Z,94931
2023-01-09T03:56:30.098Z,94938
2023-01-09T03:57:30.090Z,94941
2023-01-09T03:58:30.107Z,94952
2023-01-09T03:59:30.117Z,94945
2023-01-09T04:00:30.084Z,94940
2023-01-09T04:01:30.174Z,94948
2023-01-09T04:02:30.074Z,94950
2023-01-09T04:03:30.139Z,94953
2023-01-09T04:04:30.104Z,94957
2023-01-09T04:05:30.124Z,94960
2023-01-09T04:06:30.087Z,94961
2023-01-09T04:07:30.141Z,94964
2023-01-09T04:08:30.084Z,94976
2023-01-09T04:09:30.075Z,94979
2023-01-09T04:10:30.170Z,94987
2023-01-09T04:11:30.135Z,94989
2023-01-09T04:12:30.109Z,94997
2023-01-09T04:13:30.153Z,94997
2023-01-09T04:14:30.154Z,95010
2023-01-09T04:15:30.141Z,95013
2023-01-09T04:16:30.181Z,95029
2023-01-09T04:17:30.111Z,95037
2023-01-09T04:18:30.190Z,95029
2023-01-09T04:19:30.111Z,95036
2023-01-09T04:20:30.119Z,95035
2023-01-09T04:21:30.180Z,95053
2023-01-09T04:22:30.163Z,95040
2023-01-09T04:23:30.144Z,95041
2023-01-09T04:25:30.139Z,95034
2023-01-09T04:26:30.231Z,95033
2023-01-09T04:27:30.191Z,95041
2023-01-09T04:28:30.174Z,95047
2023-01-09T04:29:30.169Z,95052
2023-01-09T04:30:30.173Z,95059
2023-01-09T04:31:30.241Z,95061
2023-01-09T04:33:30.187Z,95069
2023-01-09T04:34:30.217Z,95076
2023-01-09T04:35:30.209Z,95071
2023-01-09T04:36:30.162Z,95060
2023-01-09T04:37:30.175Z,95068
2023-01-09T04:38:30.189Z,95068
2023-01-09T04:39:30.190Z,95051
2023-01-09T04:40:30.173Z,95048
2023-01-09T04:41:30.174Z,95049
2023-01-09T04:42:30.240Z,95055
2023-01-09T04:43:30.183Z,95058
2023-01-09T04:44:30.208Z,95053
2023-01-09T04:45:30.327Z,95068
2023-01-09T04:46:30.189Z,95060
2023-01-09T04:47:30.260Z,95058
2023-01-09T04:48:30.239Z,95058
2023-01-09T04:49:30.222Z,95068
2023-01-09T04:50:31.441Z,95077
2023-01-09T04:51:30.193Z,95071
2023-01-09T04:52:30.242Z,95077
2023-01-09T04:53:30.250Z,95073
2023-01-09T04:54:30.229Z,95073
2023-01-09T04:55:30.234Z,95074
2023-01-09T04:56:30.294Z,95083
2023-01-09T04:57:30.212Z,95084
2023-01-09T04:58:30.191Z,95084
2023-01-09T04:59:30.263Z,95091
2023-01-09T05:00:30.291Z,95098
2023-01-09T05:01:30.484Z,95096
2023-01-09T05:02:30.268Z,95092
2023-01-09T05:03:30.211Z,95093
2023-01-09T05:04:30.286Z,95081
2023-01-09T05:05:30.309Z,95084
2023-01-09T05:06:30.261Z,95084
2023-01-09T05:08:30.334Z,95062
2023-01-09T05:09:30.245Z,95082
2023-01-09T05:10:30.279Z,95089
2023-01-09T05:11:30.342Z,95094
2023-01-09T05:12:30.306Z,95096
2023-01-09T05:13:30.308Z,95093
2023-01-09T05:14:30.255Z,95095
2023-01-09T05:15:30.323Z,95096
2023-01-09T05:16:30.342Z,95100
2023-01-09T05:17:30.291Z,95097
2023-01-09T05:18:30.289Z,95107
2023-01-09T05:19:30.257Z,95107
2023-01-09T05:20:30.274Z,95107
2023-01-09T05:21:30.306Z,95098
2023-01-09T05:22:30.261Z,95106
2023-01-09T05:23:30.311Z,95105
2023-01-09T05:24:30.266Z,95107
2023-01-09T05:25:30.336Z,95105
2023-01-09T05:26:30.367Z,95110
2023-01-09T05:27:30.326Z,95110
2023-01-09T05:28:30.307Z,95105
2023-01-09T05:29:30.333Z,95114
2023-01-09T05:31:30.344Z,95128
2023-01-09T05:32:30.346Z,95124
2023-01-09T05:33:30.331Z,95132
2023-01-09T05:34:30.311Z,95139
2023-01-09T05:35:30.313Z,95139
2023-01-09T05:36:30.301Z,95138
2023-01-09T05:37:30.327Z,95142
2023-01-09T05:38:30.348Z,95152
2023-01-09T05:39:30.353Z,95154
2023-01-09T05:40:39.552Z,95151
2023-01-09T05:41:30.387Z,95156
2023-01-09T05:42:30.386Z,95152
2023-01-09T05:43:30.349Z,95149
2023-01-09T05:44:30.320Z,95144
2023-01-09T05:45:30.421Z,95143
2023-01-09T05:47:30.404Z,95143
2023-01-09T05:50:30.392Z,95138
2023-01-09T05:51:30.385Z,95147
2023-01-09T05:52:30.424Z,95140
2023-01-09T05:53:30.321Z,95140
2023-01-09T05:54:30.352Z,95135
2023-01-09T05:55:30.429Z,95119
2023-01-09T05:56:30.358Z,95123
2023-01-09T05:57:30.339Z,95123
2023-01-09T05:58:30.394Z,95129
2023-01-09T05:59:30.358Z,95135
2023-01-09T06:01:30.517Z,95133
2023-01-09T06:02:30.571Z,95132
2023-01-09T06:03:30.451Z,95130
2023-01-09T06:04:30.413Z,95138
2023-01-09T06:05:30.397Z,95141
2023-01-09T06:06:30.423Z,95141
2023-01-09T06:07:30.354Z,95141
2023-01-09T06:08:30.416Z,95141
2023-01-09T06:09:30.370Z,95153
2023-01-09T06:10:30.406Z,95153
2023-01-09T06:11:30.460Z,95150
2023-01-09T06:12:30.430Z,95156
2023-01-09T06:15:30.440Z,95155
2023-01-09T06:16:30.477Z,95146
2023-01-09T06:17:30.430Z,95146
2023-01-09T06:18:30.393Z,95149
2023-01-09T06:20:30.390Z,95146
2023-01-09T06:21:30.396Z,95147
2023-01-09T06:22:30.614Z,95139
2023-01-09T06:23:30.446Z,95137
2023-01-09T06:24:30.465Z,95143
2023-01-09T06:25:30.466Z,95142
2023-01-09T06:26:30.411Z,95142
2023-01-09T06:27:30.455Z,95139
2023-01-09T06:29:30.474Z,95147
2023-01-09T06:30:30.414Z,95146
2023-01-09T06:31:30.530Z,95147
2023-01-09T06:32:30.506Z,95151
2023-01-09T06:33:30.455Z,95148
2023-01-09T06:34:30.493Z,95155
2023-01-09T06:35:30.462Z,95154
2023-01-09T06:36:30.446Z,95159
2023-01-09T06:37:30.506Z,95160
2023-01-09T06:38:30.453Z,95164
2023-01-09T06:39:30.573Z,95162
2023-01-09T06:40:30.478Z,95155
2023-01-09T06:41:30.448Z,95159
2023-01-09T06:42:30.485Z,95157
2023-01-09T06:43:30.504Z,95159
2023-01-09T06:44:30.477Z,95159
2023-01-09T06:45:30.521Z,95156
2023-01-09T06:46:30.564Z,95163
2023-01-09T06:47:30.508Z,95156
2023-01-09T06:48:30.454Z,95155
2023-01-09T06:49:30.510Z,95158
2023-01-09T06:51:30.528Z,95148
2023-01-09T06:52:30.527Z,95151
2023-01-09T06:53:30.561Z,95152
2023-01-09T06:54:30.534Z,95152
2023-01-09T06:55:30.573Z,95151
2023-01-09T06:56:30.512Z,95152
2023-01-09T06:57:30.722Z,95152
2023-01-09T06:58:30.552Z,95151
2023-01-09T06:59:30.539Z,95156
2023-01-09T07:00:30.573Z,95156
2023-01-09T07:03:32.445Z,95148
2023-01-09T07:04:30.588Z,95143
2023-01-09T07:05:30.555Z,95147
2023-01-09T07:06:30.552Z,95140
2023-01-09T07:07:30.550Z,95141
2023-01-09T07:08:30.513Z,95138
2023-01-09T07:09:30.567Z,95143
2023-01-09T07:10:30.589Z,95146
2023-01-09T07:11:30.608Z,95143
2023-01-09T07:12:30.565Z,95145
2023-01-09T07:13:30.538Z,95145
2023-01-09T07:14:30.601Z,95147
2023-01-09T07:15:30.547Z,95145
2023-01-09T07:16:30.625Z,95143
2023-01-09T07:17:30.582Z,95146
2023-01-09T07:18:30.594Z,95137
2023-01-09T07:19:30.616Z,95134
2023-01-09T07:20:30.562Z,95130
2023-01-09T07:21:32.713Z,95132
2023-01-09T07:22:30.606Z,95129
2023-01-09T07:23:30.569Z,95132
2023-01-09T07:24:30.595Z,95132
2023-01-09T07:26:30.606Z,95118
2023-01-09T07:27:30.635Z,95118
2023-01-09T07:28:30.630Z,95118
2023-01-09T07:29:30.639Z,95120
2023-01-09T07:30:30.608Z,95114
2023-01-09T07:31:30.675Z,95116
2023-01-09T07:32:30.618Z,95111
2023-01-09T07:33:30.591Z,95114
2023-01-09T07:34:30.646Z,95113
2023-01-09T07:35:30.652Z,95106
2023-01-09T07:36:30.597Z,95108
2023-01-09T07:37:30.595Z,95103
2023-01-09T07:38:30.605Z,95097
2023-01-09T07:39:30.623Z,95093
2023-01-09T07:40:30.624Z,95091
2023-01-09T07:41:30.622Z,95087
2023-01-09T07:42:30.604Z,95087
2023-01-09T07:43:30.635Z,95080
2023-01-09T07:44:30.650Z,95085
2023-01-09T07:45:33.421Z,95073
2023-01-09T07:46:30.693Z,95079
2023-01-09T07:47:30.624Z,95079
2023-01-09T07:48:30.699Z,95087
2023-01-09T07:49:30.656Z,95086
2023-01-09T07:50:30.623Z,95085
2023-01-09T07:51:30.667Z,95082
2023-01-09T07:52:30.618Z,95088
2023-01-09T07:53:30.668Z,95086
2023-01-09T07:54:30.622Z,95086
2023-01-09T07:55:30.626Z,95094
2023-01-09T07:56:30.705Z,95098
2023-01-09T07:57:30.652Z,95101
2023-01-09T07:58:30.633Z,95099
2023-01-09T07:59:30.637Z,95103
2023-01-09T08:00:32.946Z,95106
2023-01-09T08:01:30.773Z,95102
2023-01-09T08:03:30.680Z,95107
2023-01-09T08:04:30.683Z,95108
2023-01-09T08:05:30.651Z,95105
2023-01-09T08:06:30.648Z,95107
2023-01-09T08:07:30.659Z,95113
2023-01-09T08:08:30.693Z,95117
2023-01-09T08:09:30.740Z,95111
2023-01-09T08:11:30.670Z,95108
2023-01-09T08:12:30.705Z,95105
2023-01-09T08:15:30.727Z,95108
2023-01-09T08:16:30.682Z,95116
2023-01-09T08:17:30.720Z,95113
2023-01-09T08:18:30.702Z,95120
2023-01-09T08:19:30.688Z,95123
2023-01-09T08:20:30.697Z,95118
2023-01-09T08:21:30.701Z,95119
2023-01-09T08:22:30.694Z,95121
2023-01-09T08:23:30.728Z,95121
2023-01-09T08:24:30.740Z,95128
2023-01-09T08:25:30.746Z,95127
2023-01-09T08:26:30.743Z,95124
2023-01-09T08:27:30.721Z,95123
2023-01-09T08:28:30.700Z,95123
2023-01-09T08:29:30.722Z,95119
2023-01-09T08:30:30.740Z,95117
2023-01-09T08:32:30.759Z,95118
2023-01-09T08:33:30.805Z,95112
2023-01-09T08:34:30.754Z,95110
2023-01-09T08:35:30.727Z,95105
2023-01-09T08:36:30.723Z,95112
2023-01-09T08:37:30.767Z,95109
2023-01-09T08:38:30.757Z,95110
2023-01-09T08:39:30.747Z,95109
2023-01-09T08:40:30.795Z,95113
2023-01-09T08:41:30.753Z,95107
2023-01-09T08:42:30.744Z,95108
2023-01-09T08:43:30.776Z,95101
2023-01-09T08:44:30.784Z,95099
2023-01-09T08:45:30.742Z,95103
2023-01-09T08:46:31.374Z,95105
2023-01-09T08:47:30.809Z,95106
2023-01-09T08:49:30.768Z,95111
2023-01-09T08:50:30.763Z,95112
2023-01-09T08:51:30.823Z,95117
2023-01-09T08:52:30.827Z,95115
2023-01-09T08:53:30.798Z,95112
2023-01-09T08:54:31.360Z,95119
2023-01-09T08:55:30.801Z,95120
2023-01-09T08:56:30.773Z,95119
2023-01-09T08:57:30.794Z,95118
2023-01-09T08:58:30.814Z,95121
2023-01-09T08:59:30.873Z,95115
2023-01-09T09:00:30.786Z,95120
2023-01-09T09:01:30.826Z,95124
2023-01-09T09:02:30.846Z,95121
2023-01-09T09:03:30.796Z,95128
2023-01-09T09:04:30.825Z,95127
2023-01-09T09:05:30.841Z,95127
2023-01-09T09:06:30.811Z,95130
2023-01-09T09:07:30.913Z,95126
2023-01-09T09:08:30.854Z,95127
2023-01-09T09:09:30.798Z,95124
2023-01-09T09:10:30.857Z,95127
2023-01-09T09:11:30.868Z,95132
2023-01-09T09:12:30.885Z,95132
2023-01-09T09:13:30.881Z,95133
2023-01-09T09:14:30.880Z,95135
2023-01-09T09:15:30.854Z,95136
2023-01-09T09:16:30.916Z,95140
2023-01-09T09:17:30.833Z,95136
2023-01-09T09:18:30.844Z,95136
2023-01-09T09:19:30.869Z,95128
2023-01-09T09:20:30.875Z,95132
2023-01-09T09:21:30.870Z,95132
2023-01-09T09:22:30.877Z,95131
2023-01-09T09:23:30.844Z,95132
2023-01-09T09:24:30.855Z,95135
2023-01-09T09:25:30.872Z,95136
2023-01-09T09:26:30.891Z,95136
2023-01-09T09:27:30.857Z,95137
2023-01-09T09:28:30.935Z,95139
2023-01-09T09:29:30.866Z,95134
2023-01-09T09:30:30.893Z,95135
2023-01-09T09:31:30.953Z,95138
2023-01-09T09:32:30.858Z,95138
2023-01-09T09:33:30.919Z,95137
2023-01-09T09:34:30.904Z,95137
2023-01-09T09:35:30.898Z,95137
2023-01-09T09:36:30.936Z,95139
2023-01-09T09:37:30.904Z,95145
2023-01-09T09:38:30.876Z,95145
2023-01-09T09:39:30.879Z,95151
2023-01-09T09:40:30.935Z,95154
2023-01-09T09:41:30.960Z,95152
2023-01-09T09:42:30.932Z,95156
2023-01-09T09:43:30.901Z,95151
2023-01-09T09:44:30.896Z,95153
2023-01-09T09:45:30.947Z,95159
2023-01-09T09:46:30.985Z,95148
2023-01-09T09:47:30.945Z,95158
2023-01-09T09:48:30.948Z,95154
2023-01-09T09:49:30.932Z,95157
2023-01-09T09:50:30.922Z,95163
2023-01-09T09:51:30.938Z,95166
2023-01-09T09:52:30.941Z,95160
2023-01-09T09:53:31.030Z,95161
2023-01-09T09:54:30.946Z,95166
2023-01-09T09:55:30.905Z,95166
2023-01-09T09:56:30.957Z,95160
2023-01-09T09:57:30.921Z,95151
2023-01-09T09:58:30.980Z,95154
2023-01-09T09:59:30.982Z,95154
2023-01-09T10:00:30.979Z,95155
2023-01-09T10:01:30.937Z,95162
2023-01-09T10:02:31.044Z,95162
2023-01-09T10:03:34.100Z,95158
2023-01-09T10:04:30.986Z,95153
2023-01-09T10:05:30.941Z,95142
2023-01-09T10:06:30.997Z,95147
2023-01-09T10:07:30.998Z,95142
2023-01-09T10:08:31.004Z,95144
2023-01-09T10:09:30.976Z,95141
2023-01-09T10:10:30.998Z,95130
2023-01-09T10:11:30.971Z,95134
2023-01-09T10:12:31.005Z,95134
2023-01-09T10:13:32.576Z,95134
2023-01-09T10:14:30.985Z,95133
2023-01-09T10:15:31.001Z,95125
2023-01-09T10:16:30.969Z,95125
2023-01-09T10:17:30.974Z,95122
2023-01-09T10:18:30.989Z,95120
2023-01-09T10:19:30.994Z,95122
2023-01-09T10:20:31.030Z,95122
2023-01-09T10:21:31.033Z,95106
2023-01-09T10:22:31.028Z,95115
2023-01-09T10:23:31.081Z,95111
2023-01-09T10:24:31.040Z,95109
2023-01-09T10:25:31.046Z,95108
2023-01-09T10:26:31.003Z,95115
2023-01-09T10:27:31.026Z,95110
2023-01-09T10:28:31.068Z,95111
2023-01-09T10:29:31.016Z,95103
2023-01-09T10:30:31.028Z,95114
2023-01-09T10:31:31.121Z,95109
2023-01-09T10:32:31.017Z,95113
2023-01-09T10:33:31.018Z,95107
2023-01-09T10:34:31.046Z,95107
2023-01-09T10:35:42.736Z,95102
2023-01-09T10:36:31.107Z,95110
2023-01-09T10:37:31.074Z,95104
2023-01-09T10:38:31.034Z,95105
2023-01-09T10:39:31.031Z,95105
2023-01-09T10:40:31.091Z,95107
2023-01-09T10:41:31.075Z,95104
2023-01-09T10:42:31.058Z,95106
2023-01-09T10:43:31.087Z,95104
2023-01-09T10:44:31.081Z,95108
2023-01-09T10:45:31.098Z,95108
2023-01-09T10:46:31.129Z,95102
2023-01-09T10:47:31.044Z,95101
2023-01-09T10:48:31.081Z,95099
2023-01-09T10:49:31.112Z,95098
2023-01-09T10:50:31.094Z,95100
2023-01-09T10:51:31.074Z,95100
2023-01-09T10:53:31.072Z,95100
2023-01-09T10:54:31.091Z,95092
2023-01-09T10:55:31.088Z,95101
2023-01-09T10:56:31.091Z,95104
2023-01-09T10:57:31.122Z,95102
2023-01-09T10:58:31.086Z,95101
2023-01-09T10:59:31.171Z,95105
2023-01-09T11:00:31.093Z,95099
2023-01-09T11:02:31.193Z,95096
2023-01-09T11:03:31.250Z,95100
2023-01-09T11:04:31.136Z,95099
2023-01-09T11:05:32.710Z,95096
2023-01-09T11:06:31.098Z,95098
2023-01-09T11:07:31.139Z,95098
2023-01-09T11:08:31.152Z,95097
2023-01-09T11:09:31.110Z,95094
2023-01-09T11:10:31.180Z,95094
2023-01-09T11:11:31.162Z,95101
2023-01-09T11:12:31.164Z,95096
2023-01-09T11:13:31.120Z,95089
2023-01-09T11:14:31.150Z,95096
2023-01-09T11:15:31.130Z,95091
2023-01-09T11:16:31.215Z,95083
2023-01-09T11:17:31.152Z,95088
2023-01-09T11:18:31.210Z,95083
2023-01-09T11:19:31.195Z,95085
2023-01-09T11:20:31.177Z,95086
2023-01-09T11:21:31.150Z,95080
2023-01-09T11:22:31.138Z,95085
2023-01-09T11:23:31.203Z,95089
2023-01-09T11:24:31.187Z,95091
2023-01-09T11:25:31.192Z,95092
2023-01-09T11:26:31.231Z,95091
2023-01-09T11:27:31.202Z,95097
2023-01-09T11:28:31.159Z,95097
2023-01-09T11:29:31.193Z,95097
2023-01-09T11:30:31.158Z,95099
2023-01-09T11:31:31.282Z,95097
2023-01-09T11:32:31.171Z,95089
2023-01-09T11:33:31.214Z,95092
2023-01-09T11:34:31.192Z,95096
2023-01-09T11:35:33.923Z,95098
2023-01-09T11:36:31.236Z,95095
2023-01-09T11:37:31.178Z,95103
2023-01-09T11:38:31.182Z,95090
2023-01-09T11:39:31.272Z,95105
2023-01-09T11:40:31.219Z,95100
2023-01-09T11:41:31.363Z,95108
2023-01-09T11:42:31.243Z,95112
2023-01-09T11:43:31.246Z,95122
2023-01-09T11:44:31.257Z,95116
2023-01-09T11:45:31.219Z,95117
2023-01-09T11:46:31.228Z,95120
2023-01-09T11:47:31.237Z,95124
2023-01-09T11:48:31.205Z,95124
2023-01-09T11:49:31.219Z,95113
2023-01-09T11:50:31.228Z,95119
2023-01-09T11:51:31.209Z,95117
2023-01-09T11:52:31.250Z,95133
2023-01-09T11:54:31.218Z,95127
2023-01-09T11:55:41.838Z,95128
2023-01-09T11:56:31.228Z,95133
2023-01-09T11:57:31.253Z,95129
2023-01-09T11:58:31.227Z,95139
2023-01-09T11:59:31.259Z,95140
2023-01-09T12:00:31.331Z,95141
2023-01-09T12:01:31.262Z,95140
2023-01-09T12:02:31.240Z,95143
2023-01-09T12:03:31.302Z,95148
2023-01-09T12:04:31.293Z,95145
2023-01-09T12:05:31.325Z,95154
2023-01-09T12:06:31.306Z,95160
2023-01-09T12:07:31.285Z,95145
2023-01-09T12:08:31.285Z,95160
2023-01-09T12:09:31.261Z,95160
2023-01-09T12:11:31.282Z,95168
2023-01-09T12:12:31.295Z,95176
2023-01-09T12:13:31.314Z,95170
2023-01-09T12:14:31.310Z,95170
2023-01-09T12:15:31.268Z,95172
2023-01-09T12:16:31.383Z,95174
2023-01-09T12:17:31.281Z,95174
2023-01-09T12:18:32.528Z,95172
2023-01-09T12:19:31.284Z,95175
2023-01-09T12:20:31.341Z,95165
2023-01-09T12:21:31.374Z,95166
2023-01-09T12:22:31.295Z,95169
2023-01-09T12:23:31.277Z,95171
2023-01-09T12:24:31.285Z,95178
2023-01-09T12:25:31.298Z,95174
2023-01-09T12:27:31.304Z,95169
2023-01-09T12:28:31.346Z,95170
2023-01-09T12:29:31.334Z,95166
2023-01-09T12:30:31.349Z,95169
2023-01-09T12:31:31.424Z,95163
2023-01-09T12:32:31.361Z,95162
2023-01-09T12:33:31.320Z,95165
2023-01-09T12:34:31.360Z,95169
2023-01-09T12:35:31.371Z,95167
2023-01-09T12:36:31.362Z,95168
2023-01-09T12:37:31.347Z,95163
2023-01-09T12:38:31.365Z,95163
2023-01-09T12:39:31.392Z,95167
2023-01-09T12:40:31.348Z,95169
2023-01-09T12:41:31.359Z,95162
2023-01-09T12:42:31.400Z,95163
2023-01-09T12:43:31.370Z,95163
2023-01-09T12:44:35.972Z,95148
2023-01-09T12:46:31.404Z,95159
2023-01-09T12:47:31.377Z,95163
2023-01-09T12:48:31.347Z,95163
2023-01-09T12:49:31.357Z,95164
2023-01-09T12:50:31.365Z,95166
2023-01-09T12:51:31.407Z,95171
2023-01-09T12:52:31.395Z,95173
2023-01-09T12:53:31.367Z,95170
2023-01-09T12:54:31.367Z,95170
2023-01-09T12:55:31.414Z,95172
2023-01-09T12:56:31.379Z,95166
2023-01-09T12:57:31.370Z,95165
2023-01-09T12:58:31.421Z,95166
2023-01-09T12:59:31.419Z,95158
2023-01-09T13:00:31.452Z,95164
2023-01-09T13:01:31.454Z,95166
2023-01-09T13:02:31.440Z,95165
2023-01-09T13:03:31.427Z,95159
2023-01-09T13:04:31.386Z,95160
2023-01-09T13:05:31.432Z,95167
2023-01-09T13:06:31.465Z,95166
2023-01-09T13:07:31.413Z,95161
2023-01-09T13:08:31.472Z,95169
2023-01-09T13:09:31.443Z,95169
2023-01-09T13:10:31.446Z,95170
2023-01-09T13:11:31.446Z,95159
2023-01-09T13:12:31.438Z,95176
2023-01-09T13:13:31.424Z,95174
2023-01-09T13:14:31.400Z,95176
2023-01-09T13:15:31.439Z,95176
2023-01-09T13:16:31.548Z,95168
2023-01-09T13:17:31.455Z,95168
2023-01-09T13:18:31.418Z,95168
2023-01-09T13:19:31.453Z,95159
2023-01-09T13:20:31.476Z,95163
2023-01-09T13:21:31.499Z,95162
2023-01-09T13:22:31.485Z,95157
2023-01-09T13:23:31.465Z,95155
2023-01-09T13:24:31.543Z,95156
2023-01-09T13:25:31.491Z,95151
2023-01-09T13:26:31.436Z,95152
2023-01-09T13:27:31.477Z,95153
2023-01-09T13:28:31.450Z,95153
2023-01-09T13:29:31.531Z,95153
2023-01-09T13:30:31.442Z,95143
2023-01-09T13:31:31.529Z,95146
2023-01-09T13:32:31.454Z,95150
2023-01-09T13:33:31.466Z,95156
2023-01-09T13:34:31.524Z,95149
2023-01-09T13:35:31.498Z,95142